Time;durP1;ratioP1;P1;durP2;ratioP2;P2;SDS_P1;SDS_P2;PMS_P1;PMS_P2;Temp;Humidity;BMP_temperature;BMP_pressure;BME280_temperature;BME280_humidity;BME280_pressure;Samples;Min_cycle;Max_cycle;Signal;HPM_P1;HPM_P2
2022/06/03 00:00:23;;;;;;;11.18;8.33;;;;;;;15.17;100.00;145983.44;1754288;80;21041;-58
2022/06/03 00:03:12;;;;;;;12.03;7.20;;;;;;;15.10;100.00;145965.81;1753863;80;21459;-58
2022/06/03 00:05:56;;;;;;;12.47;8.00;;;;;;;15.06;100.00;145955.72;1762572;81;21554;-58
2022/06/03 00:08:45;;;;;;;12.68;8.90;;;;;;;15.02;100.00;145945.69;1770154;81;21005;-59
2022/06/03 00:11:52;;;;;;;12.35;9.18;;;;;;;14.97;100.00;145935.59;1761124;80;21533;-58
2022/06/03 00:15:01;;;;;;;11.83;9.00;;;;;;;14.93;100.00;145925.56;1715464;83;21533;-58
2022/06/03 00:17:46;;;;;;;10.20;7.72;;;;;;;14.90;100.00;145916.72;1711456;83;21052;-60
2022/06/03 00:20:39;;;;;;;14.90;9.18;;;;;;;14.89;100.00;145915.47;1730200;82;21040;-59
2022/06/03 00:23:18;;;;;;;14.25;9.18;;;;;;;14.90;100.00;145916.72;1724116;83;21039;-59
2022/06/03 00:26:29;;;;;;;10.88;8.08;;;;;;;14.91;100.00;145920.52;1737522;81;21020;-59
2022/06/03 00:29:31;;;;;;;14.03;8.60;;;;;;;14.93;100.00;145925.56;1627004;87;21208;-60
2022/06/03 00:32:32;;;;;;;12.82;9.35;;;;;;;14.95;100.00;145929.31;1684314;84;21077;-60
2022/06/03 00:35:25;;;;;;;11.55;8.30;;;;;;;14.94;100.00;145928.06;1676650;85;21526;-59
2022/06/03 00:38:03;;;;;;;10.68;8.58;;;;;;;14.92;100.00;145923.02;1726090;81;21581;-58
2022/06/03 00:41:19;;;;;;;14.50;8.85;;;;;;;14.89;100.00;145915.47;1769461;80;21021;-59
2022/06/03 00:44:31;;;;;;;11.80;8.35;;;;;;;14.89;100.00;145914.22;1769673;80;21037;-60
2022/06/03 00:47:21;;;;;;;11.68;8.48;;;;;;;14.91;100.00;145920.52;1769917;80;21045;-58
2022/06/03 00:50:08;;;;;;;10.32;7.37;;;;;;;14.95;100.00;145930.56;1698001;84;21041;-58
2022/06/03 00:52:49;;;;;;;10.23;8.15;;;;;;;14.97;100.00;145935.59;1697515;84;21053;-59
2022/06/03 00:55:50;;;;;;;12.03;7.92;;;;;;;15.03;100.00;145948.19;1697186;84;21104;-58
2022/06/03 00:58:40;;;;;;;12.53;8.50;;;;;;;15.07;100.00;145958.28;1707471;83;21040;-59
2022/06/03 01:01:12;;;;;;;14.35;8.90;;;;;;;15.08;100.00;145962.02;1707928;83;21041;-58
2022/06/03 01:04:21;;;;;;;10.98;8.80;;;;;;;15.06;100.00;145955.72;1708186;83;20985;-58
2022/06/03 01:07:08;;;;;;;10.60;8.93;;;;;;;15.01;100.00;145943.14;1671553;84;21035;-59
2022/06/03 01:10:14;;;;;;;11.28;8.35;;;;;;;14.93;100.00;145925.56;1669708;86;21112;-59
2022/06/03 01:13:04;;;;;;;13.35;9.40;;;;;;;14.91;100.00;145919.27;1669897;85;21018;-59
2022/06/03 01:15:55;;;;;;;10.78;8.88;;;;;;;14.88;100.00;145912.97;1689211;84;21121;-58
2022/06/03 01:18:53;;;;;;;14.10;8.48;;;;;;;14.87;100.00;145910.44;1698260;83;21574;-59
2022/06/03 01:21:50;;;;;;;11.43;9.08;;;;;;;14.88;100.00;145912.97;1692739;84;21072;-58
2022/06/03 01:24:50;;;;;;;11.57;8.93;;;;;;;14.90;100.00;145916.72;1700151;84;21014;-59
2022/06/03 01:27:40;;;;;;;11.15;8.85;;;;;;;14.90;100.00;145917.97;1746191;81;21513;-59
2022/06/03 01:30:43;;;;;;;10.15;8.35;;;;;;;14.88;100.00;145912.97;1744413;81;21004;-59
2022/06/03 01:33:21;;;;;;;11.88;10.10;;;;;;;14.92;100.00;145923.02;1747197;81;21519;-59
2022/06/03 01:36:19;;;;;;;11.83;9.43;;;;;;;14.92;100.00;145923.02;1748906;81;20985;-58
2022/06/03 01:38:58;;;;;;;16.82;8.60;;;;;;;14.88;100.00;145912.97;1712884;84;21494;-58
2022/06/03 01:41:59;;;;;;;15.80;9.68;;;;;;;14.83;100.00;145899.09;1748873;82;21051;-59
2022/06/03 01:44:48;;;;;;;11.27;8.57;;;;;;;14.78;100.00;145887.77;1713364;83;21194;-60
2022/06/03 01:48:06;;;;;;;13.88;8.80;;;;;;;14.76;100.00;145884.02;1748744;81;21339;-59
2022/06/03 01:51:01;;;;;;;11.05;8.50;;;;;;;14.72;100.00;145873.94;1713120;83;21052;-58
2022/06/03 01:53:58;;;;;;;10.23;8.38;;;;;;;14.65;100.00;145855.06;1748415;81;21033;-58
2022/06/03 01:56:42;;;;;;;12.60;8.93;;;;;;;14.64;100.00;145852.56;1713031;83;21067;-60
2022/06/03 01:59:54;;;;;;;13.15;9.13;;;;;;;14.65;100.00;145855.06;1748887;82;20988;-60
2022/06/03 02:03:07;;;;;;;11.45;8.33;;;;;;;14.59;100.00;145841.22;1748638;81;21067;-59
2022/06/03 02:06:05;;;;;;;12.47;9.03;;;;;;;14.56;100.00;145833.69;1713003;83;21036;-58
2022/06/03 02:08:55;;;;;;;13.48;9.15;;;;;;;14.60;100.00;145842.47;1748904;81;21044;-57
2022/06/03 02:11:40;;;;;;;11.75;8.58;;;;;;;14.59;100.00;145839.97;1712124;84;21036;-59
2022/06/03 02:14:46;;;;;;;15.98;8.60;;;;;;;14.59;100.00;145839.97;1716276;84;21067;-59
2022/06/03 02:17:21;;;;;;;13.40;8.70;;;;;;;14.54;100.00;145829.89;1704446;83;20998;-59
2022/06/03 02:20:36;;;;;;;10.65;7.78;;;;;;;14.51;100.00;145822.31;1725921;81;21083;-59
2022/06/03 02:23:21;;;;;;;10.90;8.13;;;;;;;14.46;100.00;145808.47;1731149;81;21048;-59
2022/06/03 02:26:08;;;;;;;10.55;7.90;;;;;;;14.39;100.00;145792.09;1712606;84;21005;-58
2022/06/03 02:32:29;;;;;;;;;;;;;;;14.20;100.00;145744.33;1737961;81;21017;-58
2022/06/03 02:35:16;;;;;;;11.30;8.00;;;;;;;14.10;100.00;145721.67;1769655;80;20378;-59
2022/06/03 02:38:11;;;;;;;10.88;8.35;;;;;;;14.02;100.00;145701.56;1769469;80;21059;-59
2022/06/03 02:41:36;;;;;;;13.95;8.93;;;;;;;13.96;100.00;145686.44;1760897;81;21068;-58
2022/06/03 02:44:14;;;;;;;12.50;8.10;;;;;;;13.93;100.00;145677.66;1712905;82;21097;-59
2022/06/03 02:47:23;;;;;;;11.10;8.08;;;;;;;13.88;100.00;145666.34;1748750;81;21067;-59
2022/06/03 02:50:27;;;;;;;12.35;8.23;;;;;;;13.84;100.00;145656.25;1712654;82;21032;-59
2022/06/03 02:53:14;;;;;;;11.50;8.45;;;;;;;13.79;100.00;145644.98;1730093;81;21056;-58
2022/06/03 02:55:56;;;;;;;11.53;7.97;;;;;;;13.77;100.00;145638.69;1722304;83;21047;-59
2022/06/03 02:59:02;;;;;;;13.85;8.80;;;;;;;13.76;100.00;145636.14;1725444;82;21052;-60
2022/06/03 03:01:56;;;;;;;10.58;8.30;;;;;;;13.78;100.00;145641.19;1713177;84;21039;-59
2022/06/03 03:05:12;;;;;;;12.00;7.15;;;;;;;13.79;100.00;145643.69;1713102;84;21048;-59
2022/06/03 03:07:48;;;;;;;11.03;8.03;;;;;;;13.79;100.00;145643.69;1720100;81;21072;-58
2022/06/03 03:10:54;;;;;;;10.25;6.55;;;;;;;13.79;100.00;145644.98;1769480;81;20993;-59
2022/06/03 03:14:04;;;;;;;10.93;6.83;;;;;;;13.73;100.00;145628.61;1769505;81;21527;-58
2022/06/03 03:17:03;;;;;;;10.43;6.45;;;;;;;13.67;100.00;145614.80;1772566;80;21091;-59
2022/06/03 03:19:38;;;;;;;7.97;5.35;;;;;;;13.61;100.00;145599.67;1762019;80;21533;-58
2022/06/03 03:22:53;;;;;;;11.10;5.97;;;;;;;13.57;100.00;145589.66;1755734;82;21047;-59
2022/06/03 03:25:50;;;;;;;9.40;5.53;;;;;;;13.51;100.00;145575.83;1756729;80;21005;-60
2022/06/03 03:28:46;;;;;;;6.75;5.00;;;;;;;13.44;100.00;145558.22;1756810;82;21071;-59
2022/06/03 03:31:47;;;;;;;7.03;4.58;;;;;;;13.39;100.00;145546.91;1756692;81;21036;-59
2022/06/03 03:34:40;;;;;;;8.60;4.85;;;;;;;13.34;100.00;145534.33;1742389;81;21017;-58
2022/06/03 03:37:36;;;;;;;9.05;4.45;;;;;;;13.30;100.00;145524.25;1703412;82;21011;-59
2022/06/03 03:40:28;;;;;;;8.53;4.65;;;;;;;13.32;100.00;145528.05;1725387;82;20994;-58
2022/06/03 03:43:09;;;;;;;7.00;5.05;;;;;;;13.29;100.00;145520.52;1759341;80;21037;-59
2022/06/03 03:46:12;;;;;;;8.45;5.00;;;;;;;13.27;100.00;145516.72;1691363;81;21070;-59
2022/06/03 03:48:59;;;;;;;10.80;5.62;;;;;;;13.22;100.00;145505.36;1759756;80;21045;-59
2022/06/03 03:51:57;;;;;;;7.62;5.05;;;;;;;13.20;100.00;145500.38;1759829;81;21531;-59
2022/06/03 03:54:44;;;;;;;9.05;4.80;;;;;;;13.24;100.00;145510.39;1759765;80;21053;-59
2022/06/03 03:57:52;;;;;;;7.35;5.08;;;;;;;13.33;100.00;145530.53;1759756;80;21046;-59
2022/06/03 04:00:53;;;;;;;6.42;5.03;;;;;;;13.35;100.00;145536.83;1759747;80;21077;-59
2022/06/03 04:03:53;;;;;;;7.05;5.40;;;;;;;13.39;100.00;145546.91;1760043;80;21076;-59
2022/06/03 04:06:39;;;;;;;7.67;6.22;;;;;;;13.34;100.00;145533.08;1759943;81;21017;-59
2022/06/03 04:09:26;;;;;;;7.83;5.87;;;;;;;13.29;100.00;145520.52;1759667;80;21009;-58
2022/06/03 04:12:51;;;;;;;6.42;5.00;;;;;;;13.33;100.00;145530.53;1756762;81;21140;-60
2022/06/03 04:15:38;;;;;;;;;;;;;;;13.40;100.00;145548.16;1759778;80;21040;-59
2022/06/03 04:18:27;;;;;;;7.53;4.87;;;;;;;13.49;100.00;145570.80;1716455;83;20158;-58
2022/06/03 04:21:23;;;;;;;6.70;5.50;;;;;;;13.57;100.00;145590.89;1726765;82;21094;-59
2022/06/03 04:24:24;;;;;;;7.08;5.35;;;;;;;13.60;100.00;145598.42;1766754;79;21036;-60
2022/06/03 04:27:29;;;;;;;12.68;5.22;;;;;;;13.53;100.00;145579.56;1772049;79;21055;-56
2022/06/03 04:30:32;;;;;;;8.58;5.33;;;;;;;13.51;100.00;145574.53;1757193;82;21040;-56
2022/06/03 04:33:26;;;;;;;6.75;4.95;;;;;;;13.48;100.00;145568.25;1727677;80;21544;-56
2022/06/03 04:36:07;;;;;;;7.83;4.12;;;;;;;13.51;100.00;145575.83;1711565;80;20985;-57
2022/06/03 04:39:01;;;;;;;7.65;4.20;;;;;;;13.52;100.00;145578.33;1748718;80;21067;-56
2022/06/03 04:42:01;;;;;;;7.17;4.97;;;;;;;13.58;100.00;145593.39;1753434;81;21345;-57
2022/06/03 04:44:50;;;;;;;6.50;4.05;;;;;;;13.76;100.00;145636.14;1758348;80;21095;-57
2022/06/03 04:47:53;;;;;;;8.53;4.55;;;;;;;13.98;100.00;145690.23;1757790;80;21021;-57
2022/06/03 04:50:31;;;;;;;7.20;3.42;;;;;;;14.29;100.00;145768.19;1760258;80;21056;-57
2022/06/03 04:53:25;;;;;;;6.12;3.90;;;;;;;14.59;99.47;145839.97;1716093;81;21014;-56
2022/06/03 04:56:21;;;;;;;5.78;3.70;;;;;;;14.76;97.66;145882.77;1766498;79;21041;-56
2022/06/03 04:59:14;;;;;;;5.92;3.92;;;;;;;14.81;96.20;145895.34;1756760;80;21027;-56
2022/06/03 05:02:14;;;;;;;6.80;3.67;;;;;;;14.76;95.26;145882.77;1726902;80;21040;-57
2022/06/03 05:05:02;;;;;;;5.17;3.45;;;;;;;14.67;95.21;145860.09;1759670;80;21115;-57
2022/06/03 05:07:49;;;;;;;5.75;3.85;;;;;;;14.62;95.60;145848.77;1752091;80;21095;-57
2022/06/03 05:11:12;;;;;;;6.20;3.37;;;;;;;14.71;95.30;145871.44;1748071;80;21010;-57
2022/06/03 05:14:10;;;;;;;8.13;3.65;;;;;;;14.83;94.61;145900.34;1761328;80;21042;-57
2022/06/03 05:17:20;;;;;;;6.92;3.95;;;;;;;14.93;93.68;145924.27;1750884;80;21077;-57
2022/06/03 05:20:20;;;;;;;4.42;3.30;;;;;;;14.98;93.30;145936.84;1713436;82;21089;-57
2022/06/03 05:23:12;;;;;;;6.55;2.80;;;;;;;15.00;92.62;145940.64;1759912;80;21044;-57
2022/06/03 05:26:08;;;;;;;6.58;3.70;;;;;;;15.12;92.33;145972.11;1754951;80;21450;-57
2022/06/03 05:29:16;;;;;;;5.62;3.30;;;;;;;15.38;92.32;146035.05;1760205;80;21025;-57
2022/06/03 05:32:11;;;;;;;8.18;3.55;;;;;;;15.82;89.46;146144.66;1744205;80;21040;-56
2022/06/03 05:34:55;;;;;;;5.85;3.58;;;;;;;15.82;88.85;146143.38;1749286;80;21030;-56
2022/06/03 05:37:50;;;;;;;5.80;3.67;;;;;;;15.82;88.85;146143.38;1752567;80;20986;-61
2022/06/03 05:40:36;;;;;;;4.85;2.90;;;;;;;15.81;88.38;146142.13;1735646;80;21556;-59
2022/06/03 05:43:49;;;;;;;5.92;3.30;;;;;;;15.89;87.85;146159.75;1747833;80;21503;-57
2022/06/03 05:46:42;;;;;;;5.10;3.15;;;;;;;16.00;87.03;146187.45;1744152;80;21080;-58
2022/06/03 05:49:40;;;;;;;4.83;2.90;;;;;;;16.22;86.46;146242.88;1756374;80;21032;-59
2022/06/03 05:52:49;;;;;;;4.85;3.27;;;;;;;17.58;82.31;146578.22;1718048;82;21043;-58
2022/06/03 05:55:46;;;;;;;5.50;2.50;;;;;;;19.93;72.06;147156.39;1719934;83;21000;-59
2022/06/03 05:58:54;;;;;;;6.95;2.45;;;;;;;21.87;63.70;147636.78;1714938;82;21084;-58
2022/06/03 06:01:50;;;;;;;4.85;1.90;;;;;;;23.21;54.82;147965.94;1722006;82;21553;-58
2022/06/03 06:04:37;;;;;;;4.80;2.33;;;;;;;24.32;52.91;148240.78;1719377;82;21055;-58
2022/06/03 06:07:34;;;;;;;4.17;1.90;;;;;;;25.26;47.29;148475.33;1761668;80;21051;-59
2022/06/03 06:10:23;;;;;;;4.50;1.80;;;;;;;25.66;47.01;148574.25;1717856;80;21089;-57
2022/06/03 06:13:27;;;;;;;4.45;1.70;;;;;;;26.44;45.10;148767.11;1766643;80;21047;-58
2022/06/03 06:16:23;;;;;;;3.75;1.65;;;;;;;27.39;42.95;149003.23;1754729;80;21083;-59
2022/06/03 06:19:03;;;;;;;4.83;1.82;;;;;;;27.81;38.46;149107.42;1686570;83;21058;-62
2022/06/03 06:22:02;;;;;;;3.17;1.57;;;;;;;27.69;38.75;149076.89;1756816;80;21617;-59
2022/06/03 06:24:44;;;;;;;4.03;1.70;;;;;;;27.84;38.28;149115.03;1759615;80;21099;-57
2022/06/03 06:27:32;;;;;;;;;;;;;;;28.57;37.63;149295.41;1757903;79;21051;-59
2022/06/03 06:30:13;;;;;;;2.90;1.70;;;;;;;28.56;36.45;149294.16;1762109;80;20202;-58
2022/06/03 06:32:58;;;;;;;2.75;1.40;;;;;;;28.61;37.03;149304.34;1700228;80;21067;-58
2022/06/03 06:35:55;;;;;;;3.08;1.47;;;;;;;29.04;36.17;149411.08;1763249;80;21071;-58
2022/06/03 06:38:30;;;;;;;4.08;1.32;;;;;;;28.95;35.02;149389.44;1759861;80;21058;-59
2022/06/03 06:41:37;;;;;;;2.12;1.07;;;;;;;28.84;35.28;149362.77;1754462;80;21062;-58
2022/06/03 06:44:09;;;;;;;3.25;1.17;;;;;;;29.21;34.13;149455.59;1757372;80;21083;-58
2022/06/03 06:46:52;;;;;;;3.52;1.25;;;;;;;28.62;34.45;149306.86;1749446;80;21066;-58
2022/06/03 06:49:43;;;;;;;;;;;;;;;28.40;34.64;149253.47;1759364;80;21001;-58
2022/06/03 06:52:31;;;;;;;3.58;1.40;;;;;;;28.32;34.59;149233.16;1758688;80;20126;-58
2022/06/03 06:55:22;;;;;;;2.85;1.20;;;;;;;28.51;34.68;149280.19;1763754;80;21014;-58
2022/06/03 06:57:54;;;;;;;4.42;0.85;;;;;;;28.56;34.32;149292.89;1724558;82;21007;-59
2022/06/03 07:00:33;;;;;;;;;;;;;;;28.66;33.47;149318.30;1729113;82;21099;-59
2022/06/03 07:03:21;;;;;;;1.70;1.00;;;;;;;28.62;34.04;149308.13;1680320;83;20141;-58
2022/06/03 07:06:15;;;;;;;1.60;1.00;;;;;;;28.74;32.67;149338.63;1758617;80;21083;-58
2022/06/03 07:08:56;;;;;;;3.22;0.88;;;;;;;28.33;33.12;149235.69;1765446;80;21516;-57
2022/06/03 07:11:36;;;;;;;3.05;1.10;;;;;;;28.50;33.35;149278.94;1748572;80;21049;-59
2022/06/03 07:14:12;;;;;;;4.92;1.27;;;;;;;28.77;33.61;149346.23;1760463;80;20985;-59
2022/06/03 07:20:00;;;;;;;1.90;0.98;;;;;;;29.98;31.73;149646.31;1707357;83;22120;-59
2022/06/03 07:22:45;;;;;;;3.02;0.98;;;;;;;29.64;31.85;149562.37;1680801;83;21068;-59
2022/06/03 07:25:29;;;;;;;1.32;0.80;;;;;;;29.57;32.23;149544.56;1715321;83;21092;-57
2022/06/03 07:28:04;;;;;;;2.62;0.90;;;;;;;29.82;31.52;149605.66;1712299;83;21534;-59
2022/06/03 07:30:45;;;;;;;1.40;0.78;;;;;;;29.35;31.66;149488.63;1705836;83;21030;-58
2022/06/03 07:33:34;;;;;;;;;;;;;;;28.86;31.86;149366.59;1697362;83;21085;-59
2022/06/03 07:36:32;;;;;;;1.72;0.90;;;;;;;29.00;31.94;149402.16;1683934;84;20423;-58
2022/06/03 07:39:43;;;;;;;3.80;1.00;;;;;;;28.93;31.89;149384.41;1708733;83;21026;-58
2022/06/03 07:42:27;;;;;;;1.90;0.95;;;;;;;29.06;32.00;149416.22;1700753;83;21103;-58
2022/06/03 07:45:30;;;;;;;1.80;0.80;;;;;;;29.69;31.37;149572.56;1700692;83;21345;-58
2022/06/03 07:48:03;;;;;;;1.75;0.70;;;;;;;29.70;31.38;149575.13;1691479;83;21115;-58
2022/06/03 07:50:34;;;;;;;2.40;1.00;;;;;;;29.47;31.03;149517.88;1724543;82;20983;-59
2022/06/03 07:53:04;;;;;;;;;;;;;;;29.39;31.63;149498.81;1724344;82;21077;-58
2022/06/03 07:55:32;;;;;;;1.17;0.80;;;;;;;29.23;31.37;149459.38;1715980;82;20101;-59
2022/06/03 07:58:07;;;;;;;1.15;0.82;;;;;;;29.03;31.39;149409.81;1717724;82;21077;-59
2022/06/03 08:00:39;;;;;;;2.42;1.07;;;;;;;28.84;32.26;149361.50;1719189;83;21516;-59
2022/06/03 08:03:21;;;;;;;1.67;0.80;;;;;;;29.24;31.65;149460.69;1724189;83;21643;-58
2022/06/03 08:05:58;;;;;;;2.98;1.37;;;;;;;29.54;31.33;149536.95;1725083;83;21038;-58
2022/06/03 08:11:30;;;;;;;4.08;0.90;;;;;;;29.86;30.36;149615.80;1724243;82;21548;-58
2022/06/03 08:14:00;;;;;;;5.58;1.00;;;;;;;30.20;30.08;149699.70;1721377;82;21019;-59
2022/06/03 08:16:38;;;;;;;2.30;1.20;;;;;;;30.34;29.83;149734.12;1722919;82;21104;-57
2022/06/03 08:19:26;;;;;;;3.90;0.98;;;;;;;30.21;30.11;149703.53;1716626;83;21139;-58
2022/06/03 08:21:58;;;;;;;1.77;1.00;;;;;;;29.90;30.14;149625.98;1718350;83;21485;-59
2022/06/03 08:24:34;;;;;;;3.77;1.30;;;;;;;29.31;30.53;149478.44;1719867;83;21078;-58
2022/06/03 08:27:03;;;;;;;2.65;0.70;;;;;;;28.86;30.62;149366.59;1723470;82;20990;-57
2022/06/03 08:29:53;;;;;;;1.52;0.70;;;;;;;28.76;30.61;149342.44;1725295;82;21533;-58
2022/06/03 08:32:40;;;;;;;1.60;0.93;;;;;;;28.81;30.35;149353.89;1719338;82;21046;-59
2022/06/03 08:35:13;;;;;;;3.45;1.10;;;;;;;28.77;30.27;149346.23;1718379;82;21020;-58
2022/06/03 08:37:48;;;;;;;3.10;0.85;;;;;;;28.86;30.44;149366.59;1717028;83;21022;-58
2022/06/03 08:40:33;;;;;;;3.12;0.95;;;;;;;28.87;29.76;149369.13;1724503;82;21552;-58
2022/06/03 08:43:25;;;;;;;2.25;0.90;;;;;;;28.73;30.66;149336.09;1719529;82;21069;-58
2022/06/03 08:46:04;;;;;;;2.35;0.90;;;;;;;28.76;30.27;149342.44;1714796;82;21059;-58
2022/06/03 08:48:41;;;;;;;5.33;1.40;;;;;;;28.59;31.12;149300.50;1701343;84;21106;-58
2022/06/03 08:51:16;;;;;;;2.98;0.90;;;;;;;28.35;31.94;149242.03;1661905;85;21058;-58
2022/06/03 08:54:03;;;;;;;1.87;0.80;;;;;;;28.19;31.58;149201.41;1692560;84;21324;-59
2022/06/03 08:56:37;;;;;;;2.12;0.90;;;;;;;27.81;31.58;149107.42;1707384;84;21574;-59
2022/06/03 08:59:16;;;;;;;2.17;0.90;;;;;;;27.55;31.48;149041.33;1705732;83;21044;-60
2022/06/03 09:02:00;;;;;;;2.30;0.80;;;;;;;27.51;31.49;149031.19;1679445;83;21594;-61
2022/06/03 09:04:46;;;;;;;2.15;0.90;;;;;;;27.53;31.08;149037.55;1697407;83;21044;-63
2022/06/03 09:07:45;;;;;;;1.37;0.88;;;;;;;27.36;32.02;148995.63;1673989;83;21089;-63
2022/06/03 09:10:31;;;;;;;2.05;0.93;;;;;;;27.36;32.21;148995.63;1678471;84;21129;-61
2022/06/03 09:13:12;;;;;;;3.25;1.02;;;;;;;26.76;32.05;148845.81;1698813;84;21114;-60
2022/06/03 09:15:44;;;;;;;1.72;0.90;;;;;;;26.39;32.37;148755.69;1683989;83;21074;-60
2022/06/03 09:18:34;;;;;;;3.17;1.10;;;;;;;26.23;31.71;148713.80;1699967;84;21007;-61
2022/06/03 09:21:12;;;;;;;1.65;0.90;;;;;;;25.70;32.63;148583.16;1729808;81;21012;-61
2022/06/03 09:23:49;;;;;;;1.42;0.90;;;;;;;24.91;33.74;148387.86;1713020;82;21032;-61
2022/06/03 09:26:26;;;;;;;2.77;1.12;;;;;;;24.22;35.11;148216.70;1758907;80;21060;-61
2022/06/03 09:28:56;;;;;;;3.00;1.30;;;;;;;23.51;37.38;148041.91;1718052;82;21088;-61
2022/06/03 09:31:25;;;;;;;1.67;1.07;;;;;;;22.79;38.77;147863.31;1718434;82;21082;-60
2022/06/03 09:33:55;;;;;;;3.77;1.70;;;;;;;22.38;39.55;147760.83;1712039;84;21083;-60
2022/06/03 09:36:24;;;;;;;3.77;1.07;;;;;;;22.18;40.63;147711.44;1713893;82;21043;-61
2022/06/03 09:39:08;;;;;;;2.58;1.72;;;;;;;21.89;41.38;147640.59;1764118;80;21079;-61
2022/06/03 09:41:41;;;;;;;4.78;1.30;;;;;;;21.76;41.50;147607.73;1720372;82;21037;-61
2022/06/03 09:44:13;;;;;;;2.62;1.15;;;;;;;21.68;41.88;147590.02;1745319;82;21009;-59
2022/06/03 09:46:43;;;;;;;2.25;1.00;;;;;;;21.46;39.82;147535.63;1784204;80;21031;-61
2022/06/03 09:49:14;;;;;;;2.58;1.27;;;;;;;21.34;41.11;147505.22;1780627;80;21015;-60
2022/06/03 09:51:56;;;;;;;1.98;1.27;;;;;;;21.27;40.83;147486.25;1784534;80;21020;-61
2022/06/03 09:54:29;;;;;;;1.32;0.93;;;;;;;21.09;40.26;147442.00;1735353;80;21498;-60
2022/06/03 09:57:01;;;;;;;3.75;1.30;;;;;;;21.00;40.39;147421.78;1784512;80;21575;-62
2022/06/03 09:59:34;;;;;;;4.90;1.27;;;;;;;21.07;40.62;147436.98;1784147;80;21529;-60
2022/06/03 10:02:03;;;;;;;1.85;1.15;;;;;;;21.14;41.30;147454.64;1784719;80;21031;-61
2022/06/03 10:04:31;;;;;;;3.05;1.40;;;;;;;21.18;40.25;147466.03;1784410;80;21481;-61
2022/06/03 10:07:00;;;;;;;3.00;1.30;;;;;;;21.19;40.86;147467.28;1784522;80;21490;-61
2022/06/03 10:18:05;;;;;;;2.42;1.27;;;;;;;21.21;41.91;147472.34;1707111;82;21040;-62
2022/06/03 10:20:36;;;;;;;4.15;1.37;;;;;;;21.27;41.08;147487.56;1755222;80;21008;-62
2022/06/03 10:23:08;;;;;;;2.92;1.50;;;;;;;21.35;41.84;147506.52;1749580;82;21466;-62
2022/06/03 10:25:39;;;;;;;;;;;;;;;21.48;42.77;147538.17;1738948;82;21016;-62
2022/06/03 10:28:10;;;;;;;3.12;1.40;;;;;;;21.65;42.50;147582.44;1731271;81;20111;-64
2022/06/03 10:30:41;;;;;;;2.60;1.40;;;;;;;21.79;43.08;147616.56;1757931;80;21183;-62
2022/06/03 10:33:20;;;;;;;2.60;1.30;;;;;;;21.91;42.79;147645.67;1756999;82;20984;-62
2022/06/03 10:35:50;;;;;;;3.73;1.40;;;;;;;21.89;42.09;147641.86;1766727;81;21068;-62
2022/06/03 10:38:21;;;;;;;2.92;1.42;;;;;;;21.96;41.74;147657.06;1775169;81;21235;-62
2022/06/03 10:40:51;;;;;;;1.97;1.23;;;;;;;22.13;42.11;147700.03;1770578;79;20995;-62
2022/06/03 10:43:34;;;;;;;2.60;1.50;;;;;;;22.39;41.47;147763.34;1738203;82;21008;-62
2022/06/03 10:46:15;;;;;;;2.33;1.25;;;;;;;22.44;40.36;147776.00;1768405;80;21459;-62
2022/06/03 10:48:44;;;;;;;2.27;1.40;;;;;;;22.45;39.58;147779.81;1779476;81;20960;-62
2022/06/03 10:51:19;;;;;;;1.80;1.10;;;;;;;22.40;39.38;147767.16;1780291;79;21051;-62
2022/06/03 11:02:40;;;;;;;2.98;1.42;;;;;;;22.63;39.77;147824.09;1720740;83;21035;-62
2022/06/03 11:05:31;;;;;;;2.10;1.30;;;;;;;22.79;39.63;147862.06;1758541;81;21035;-62
2022/06/03 11:08:05;;;;;;;2.37;1.50;;;;;;;22.98;40.23;147910.23;1756838;82;21071;-62
2022/06/03 11:10:47;;;;;;;5.92;1.52;;;;;;;23.07;41.25;147932.98;1692199;85;20972;-62
2022/06/03 11:13:25;;;;;;;2.10;1.37;;;;;;;23.10;41.24;147940.62;1697429;83;21093;-66
2022/06/03 11:15:54;;;;;;;2.65;1.47;;;;;;;23.15;41.18;147953.28;1753559;80;21033;-62
2022/06/03 11:18:32;;;;;;;4.45;1.60;;;;;;;23.26;41.49;147978.59;1754738;80;21041;-62
2022/06/03 11:21:20;;;;;;;2.65;1.45;;;;;;;23.38;41.27;148008.94;1751657;81;21051;-62
2022/06/03 11:23:47;;;;;;;2.92;1.60;;;;;;;23.57;40.59;148057.08;1749244;81;21067;-62
2022/06/03 11:26:16;;;;;;;4.03;1.70;;;;;;;23.46;40.02;148029.25;1753341;80;21044;-63
2022/06/03 11:28:54;;;;;;;2.33;1.30;;;;;;;23.42;40.72;148019.09;1748812;81;21051;-63
2022/06/03 11:31:27;;;;;;;2.95;1.40;;;;;;;23.55;40.61;148050.75;1713960;82;21032;-63
2022/06/03 11:34:01;;;;;;;3.35;1.50;;;;;;;23.70;40.15;148088.73;1754826;82;20973;-62
2022/06/03 11:36:56;;;;;;;2.58;1.62;;;;;;;23.88;39.79;148133.11;1755379;81;21025;-62
2022/06/03 11:39:41;;;;;;;2.35;1.50;;;;;;;23.80;40.10;148112.86;1753220;80;21064;-67
2022/06/03 11:42:35;;;;;;;3.20;1.37;;;;;;;23.73;40.14;148095.13;1741556;81;21069;-66
2022/06/03 11:45:12;;;;;;;2.83;1.30;;;;;;;23.56;40.50;148054.56;1755503;80;21043;-62
2022/06/03 11:47:56;;;;;;;3.75;1.90;;;;;;;23.61;40.66;148065.97;1712221;82;21015;-62
2022/06/03 11:50:27;;;;;;;2.80;1.52;;;;;;;23.72;40.75;148093.86;1746809;81;21053;-63
2022/06/03 11:52:57;;;;;;;5.00;2.17;;;;;;;23.99;40.04;148161.00;1752130;80;21033;-62
2022/06/03 11:55:28;;;;;;;4.58;1.40;;;;;;;24.14;40.14;148196.44;1745694;82;21075;-62
2022/06/03 11:58:02;;;;;;;2.55;1.60;;;;;;;24.31;40.00;148238.27;1752383;80;21039;-62
2022/06/03 12:00:35;;;;;;;3.33;1.30;;;;;;;24.30;39.67;148237.02;1749161;81;21028;-62
2022/06/03 12:03:10;;;;;;;3.37;1.70;;;;;;;24.11;40.16;148188.84;1748623;81;21040;-62
2022/06/03 12:05:45;;;;;;;3.87;1.32;;;;;;;23.92;40.02;148142.00;1748951;81;21056;-61
2022/06/03 12:08:20;;;;;;;2.77;1.50;;;;;;;23.59;40.28;148062.16;1750964;81;21126;-62
2022/06/03 12:11:09;;;;;;;3.25;1.40;;;;;;;23.26;41.04;147979.84;1753583;82;21120;-62
2022/06/03 12:13:37;;;;;;;3.83;1.50;;;;;;;23.12;41.83;147944.39;1755541;80;21506;-62
2022/06/03 12:16:14;;;;;;;2.45;1.50;;;;;;;23.39;41.68;148011.50;1749582;81;21023;-62
2022/06/03 12:19:02;;;;;;;4.20;1.60;;;;;;;23.55;40.65;148052.00;1755430;81;21079;-62
2022/06/03 12:21:43;;;;;;;2.50;1.42;;;;;;;23.28;41.17;147983.63;1750208;80;21059;-62
2022/06/03 12:24:32;;;;;;;3.60;1.45;;;;;;;23.33;41.21;147996.28;1755795;80;21094;-61
2022/06/03 12:27:04;;;;;;;4.10;1.67;;;;;;;23.55;40.74;148052.00;1748378;80;21004;-62
2022/06/03 12:29:38;;;;;;;3.60;1.80;;;;;;;23.81;40.72;148115.37;1719005;82;21506;-62
2022/06/03 12:32:28;;;;;;;9.90;1.95;;;;;;;23.74;40.77;148097.69;1759401;80;21537;-63
2022/06/03 12:35:34;;;;;;;4.00;1.57;;;;;;;23.44;40.82;148022.91;1707854;82;21758;-64
2022/06/03 12:38:25;;;;;;;2.30;1.30;;;;;;;23.02;41.26;147920.33;1697021;83;21109;-62
2022/06/03 12:40:56;;;;;;;2.33;1.50;;;;;;;22.68;42.20;147836.75;1705203;84;21013;-61
2022/06/03 12:43:32;;;;;;;2.60;1.70;;;;;;;22.47;42.43;147783.63;1702402;83;21045;-62
2022/06/03 12:46:09;;;;;;;5.42;1.70;;;;;;;22.24;42.54;147727.94;1702582;83;21598;-62
2022/06/03 12:48:55;;;;;;;2.25;1.55;;;;;;;22.16;42.60;147707.67;1714987;82;21085;-62
2022/06/03 12:51:24;;;;;;;3.20;1.47;;;;;;;22.43;42.36;147773.48;1705376;83;21097;-62
2022/06/03 12:53:59;;;;;;;3.58;1.65;;;;;;;22.73;41.93;147848.16;1699124;83;21046;-62
2022/06/03 12:56:51;;;;;;;2.95;1.60;;;;;;;22.83;41.58;147872.22;1711838;83;21099;-62
2022/06/03 12:59:35;;;;;;;3.95;1.62;;;;;;;22.61;41.78;147819.03;1714234;82;21165;-62
2022/06/03 13:02:07;;;;;;;4.20;1.82;;;;;;;22.35;42.25;147753.25;1695921;83;21127;-62
2022/06/03 21:13:27;;;;;;;7.87;3.40;;;;;;;17.46;55.39;146547.94;1762640;81;21043;-56
2022/06/03 21:15:55;;;;;;;5.50;3.42;;;;;;;17.54;55.63;146568.09;1762590;81;21203;-57
2022/06/03 21:18:23;;;;;;;4.92;3.20;;;;;;;17.61;55.54;146583.27;1756897;80;21022;-58
2022/06/03 21:21:08;;;;;;;4.25;2.80;;;;;;;17.66;55.31;146597.13;1788873;80;20996;-59
2022/06/03 21:23:54;;;;;;;5.33;2.98;;;;;;;17.70;55.08;146605.94;1788788;80;21543;-58
2022/06/03 21:26:22;;;;;;;6.28;3.20;;;;;;;17.70;55.07;146605.94;1775608;80;21088;-60